createdAt,value
2022-12-18T00:00:40.216Z,100767.06
2022-12-18T00:03:08.139Z,100768.91
2022-12-18T00:05:35.260Z,100764.38
2022-12-18T00:08:01.765Z,100767.22
2022-12-18T00:10:28.424Z,100766.22
2022-12-18T00:12:54.878Z,100767.06
2022-12-18T00:15:21.209Z,100757.22
2022-12-18T00:17:47.611Z,100755.50
2022-12-18T00:20:15.296Z,100756.47
2022-12-18T00:22:41.632Z,100755.63
2022-12-18T00:25:08.261Z,100752.94
2022-12-18T00:27:34.595Z,100752.09
2022-12-18T00:30:00.880Z,100756.63
2022-12-18T00:32:27.208Z,100749.41
2022-12-18T00:34:53.519Z,100745.75
2022-12-18T00:37:21.110Z,100743.91
2022-12-18T00:39:48.968Z,100739.53
2022-12-18T00:42:15.259Z,100734.00
2022-12-18T00:44:41.671Z,100727.94
2022-12-18T00:47:08.026Z,100714.53
2022-12-18T00:49:34.428Z,100720.84
2022-12-18T00:52:00.778Z,100722.69
2022-12-18T00:54:28.376Z,100719.16
2022-12-18T00:56:54.685Z,100719.16
2022-12-18T00:59:21.042Z,100713.78
2022-12-18T01:01:47.855Z,100718.16
2022-12-18T01:04:14.522Z,100712.78
2022-12-18T01:06:40.957Z,100722.69
2022-12-18T01:09:07.270Z,100720.97
2022-12-18T01:11:34.882Z,100716.47
2022-12-18T01:14:01.177Z,100718.31
2022-12-18T01:16:27.768Z,100714.78
2022-12-18T01:18:54.658Z,100727.34
2022-12-18T01:21:21.392Z,100724.66
2022-12-18T01:23:47.806Z,100720.13
2022-12-18T01:26:15.120Z,100727.34
2022-12-18T01:28:43.295Z,100735.38
2022-12-18T01:31:10.357Z,100722.94
2022-12-18T01:33:36.968Z,100710.38
2022-12-18T01:36:03.618Z,100707.69
2022-12-18T01:38:30.004Z,100704.13
2022-12-18T01:40:57.853Z,100696.97
2022-12-18T01:43:39.347Z,100695.25
2022-12-18T01:46:07.232Z,100690.72
2022-12-18T01:48:33.711Z,100691.59
2022-12-18T01:51:00.746Z,100696.09
2022-12-18T01:53:27.078Z,100695.13
2022-12-18T01:55:54.690Z,100704.03
2022-12-18T01:58:22.988Z,100693.41
2022-12-18T02:00:49.417Z,100700.59
2022-12-18T02:03:17.122Z,100695.25
2022-12-18T02:05:45.735Z,100692.56
2022-12-18T02:08:16.050Z,100688.91
2022-12-18T02:10:48.281Z,100690.84
2022-12-18T02:13:20.375Z,100690.84
2022-12-18T02:15:51.898Z,100698.78
2022-12-18T02:18:20.792Z,100695.25
2022-12-18T02:20:48.921Z,100691.72
2022-12-18T02:23:24.922Z,100689.03
2022-12-18T02:26:03.246Z,100677.44
2022-12-18T02:28:32.049Z,100675.50
2022-12-18T02:31:00.590Z,100670.13
2022-12-18T02:33:28.263Z,100679.13
2022-12-18T02:35:55.621Z,100676.47
2022-12-18T02:38:21.973Z,100666.72
2022-12-18T02:40:49.745Z,100655.97
2022-12-18T02:43:17.395Z,100656.81
2022-12-18T02:45:48.116Z,100647.91
2022-12-18T02:48:14.812Z,100643.53
2022-12-18T02:50:46.130Z,100639.88
2022-12-18T02:53:18.593Z,100639.88
2022-12-18T02:55:53.095Z,100639.03
2022-12-18T02:58:24.562Z,100641.81
2022-12-18T03:00:54.549Z,100648.91
2022-12-18T03:03:25.125Z,100655.13
2022-12-18T03:05:53.423Z,100647.19
2022-12-18T03:08:21.865Z,100642.69
2022-12-18T03:10:50.606Z,100653.44
2022-12-18T03:13:21.328Z,100660.59
2022-12-18T03:15:50.263Z,100661.59
2022-12-18T03:18:18.350Z,100666.09
2022-12-18T03:20:45.413Z,100664.41
2022-12-18T03:23:13.249Z,100664.28
2022-12-18T03:25:40.908Z,100657.91
2022-12-18T03:28:09.128Z,100666.97
2022-12-18T03:30:39.049Z,100653.69
2022-12-18T03:33:09.893Z,100641.13
2022-12-18T03:35:38.341Z,100639.28
2022-12-18T03:38:04.796Z,100638.44
2022-12-18T03:40:36.259Z,100650.16
2022-12-18T03:43:07.167Z,100645.63
2022-12-18T03:45:35.716Z,100651.84
2022-12-18T03:48:05.122Z,100651.94
2022-12-18T03:50:38.107Z,100662.69
2022-12-18T03:53:11.292Z,100657.22
2022-12-18T03:55:38.761Z,100648.31
2022-12-18T03:58:06.745Z,100666.25
2022-12-18T04:00:34.490Z,100680.50
2022-12-18T04:03:01.658Z,100676.97
2022-12-18T04:05:29.090Z,100677.94
2022-12-18T04:07:57.082Z,100676.25
2022-12-18T04:10:23.716Z,100664.66
2022-12-18T04:12:50.025Z,100666.34
2022-12-18T04:15:16.488Z,100666.50
2022-12-18T04:17:47.506Z,100678.94
2022-12-18T04:20:13.832Z,100674.41
2022-12-18T04:22:40.210Z,100682.47
2022-12-18T04:25:09.188Z,100686.13
2022-12-18T04:27:35.578Z,100681.63
2022-12-18T04:30:02.060Z,100675.41
2022-12-18T04:32:28.352Z,100671.88
2022-12-18T04:34:54.715Z,100661.25
2022-12-18T04:37:20.984Z,100669.19
2022-12-18T04:39:47.459Z,100663.81
2022-12-18T04:42:15.056Z,100670.13
2022-12-18T04:44:41.328Z,100660.41
2022-12-18T04:47:07.590Z,100656.72
2022-12-18T04:49:34.124Z,100655.03
2022-12-18T04:52:00.424Z,100653.19
2022-12-18T04:54:26.703Z,100649.66
2022-12-18T04:56:53.015Z,100646.97
2022-12-18T04:59:21.307Z,100638.06
2022-12-18T05:01:47.827Z,100631.03
2022-12-18T05:04:14.341Z,100631.97
2022-12-18T05:06:40.655Z,100624.91
2022-12-18T05:09:07.043Z,100617.72
2022-12-18T05:11:33.425Z,100619.53
2022-12-18T05:13:59.787Z,100600.63
2022-12-18T05:16:27.439Z,100595.41
2022-12-18T05:18:53.812Z,100601.63
2022-12-18T05:21:20.276Z,100614.19
2022-12-18T05:23:46.612Z,100618.56
2022-12-18T05:26:15.757Z,100609.81
2022-12-18T05:28:42.040Z,100600.75
2022-12-18T05:31:08.353Z,100602.59
2022-12-18T05:33:36.467Z,100599.91
2022-12-18T05:36:04.327Z,100595.53
2022-12-18T05:38:31.161Z,100595.53
2022-12-18T05:40:57.846Z,100590.19
2022-12-18T05:43:24.629Z,100583.81
2022-12-18T05:45:51.335Z,100571.41
2022-12-18T05:48:18.023Z,100569.66
2022-12-18T05:50:46.582Z,100565.16
2022-12-18T05:53:13.626Z,100564.31
2022-12-18T05:55:40.640Z,100560.78
2022-12-18T05:58:07.921Z,100559.94
2022-12-18T06:00:35.829Z,100551.88
2022-12-18T06:03:02.266Z,100549.34
2022-12-18T06:05:29.062Z,100539.44
2022-12-18T06:07:56.625Z,100549.34
2022-12-18T06:10:22.914Z,100546.50
2022-12-18T06:12:49.206Z,100535.94
2022-12-18T06:15:15.617Z,100528.72
2022-12-18T06:17:43.545Z,100526.16
2022-12-18T06:20:10.765Z,100529.69
2022-12-18T06:22:37.088Z,100523.34
2022-12-18T06:25:05.382Z,100510.06
2022-12-18T06:27:31.750Z,100508.34
2022-12-18T06:29:58.076Z,100511.03
2022-12-18T06:32:24.392Z,100521.78
2022-12-18T06:34:50.685Z,100520.78
2022-12-18T06:37:17.104Z,100509.22
2022-12-18T06:39:43.379Z,100511.03
2022-12-18T06:42:11.016Z,100517.25
2022-12-18T06:44:37.348Z,100525.44
2022-12-18T06:47:03.698Z,100526.41
2022-12-18T06:49:30.722Z,100538.00
2022-12-18T06:51:57.187Z,100535.31
2022-12-18T06:54:23.435Z,100530.91
2022-12-18T06:56:50.400Z,100528.25
2022-12-18T06:59:18.703Z,100525.56
2022-12-18T07:04:34.384Z,100532.91
2022-12-18T07:07:00.716Z,100532.06
2022-12-18T07:09:29.029Z,100528.38
2022-12-18T07:11:55.364Z,100533.75
2022-12-18T07:14:23.960Z,100531.06
2022-12-18T07:16:50.273Z,100519.59
2022-12-18T07:19:16.604Z,100514.22
2022-12-18T07:21:43.061Z,100502.66
2022-12-18T07:24:09.358Z,100505.34
2022-12-18T07:26:35.705Z,100500.81
2022-12-18T07:29:02.079Z,100505.34
2022-12-18T07:31:29.813Z,100506.19
2022-12-18T07:33:56.180Z,100510.84
2022-12-18T07:36:22.497Z,100512.53
2022-12-18T07:38:49.043Z,100503.66
2022-12-18T07:41:15.511Z,100510.84
2022-12-18T07:43:42.672Z,100508.16
2022-12-18T07:46:09.883Z,100510.00
2022-12-18T07:48:37.702Z,100507.31
2022-12-18T07:51:05.631Z,100511.69
2022-12-18T07:53:32.863Z,100498.38
2022-12-18T07:56:26.074Z,100502.78
2022-12-18T07:58:45.996Z,100492.06
2022-12-18T08:01:14.858Z,100487.66
2022-12-18T08:03:43.036Z,100496.69
2022-12-18T08:06:10.532Z,100495.72
2022-12-18T08:08:36.950Z,100499.38
2022-12-18T08:11:03.293Z,100501.22
2022-12-18T08:13:29.715Z,100507.44
2022-12-18T08:15:56.659Z,100494.16
2022-12-18T08:18:23.015Z,100495.13
2022-12-18T08:20:50.594Z,100492.31
2022-12-18T08:23:16.947Z,100491.47
2022-12-18T08:25:43.241Z,100487.94
2022-12-18T08:28:09.586Z,100496.00
2022-12-18T08:30:36.369Z,100488.91
2022-12-18T08:33:02.872Z,100495.25
2022-12-18T08:35:34.090Z,100500.75
2022-12-18T08:38:04.113Z,100507.94
2022-12-18T08:40:30.521Z,100515.03
2022-12-18T08:42:56.824Z,100511.50
2022-12-18T08:45:23.304Z,100510.75
2022-12-18T08:47:49.629Z,100515.28
2022-12-18T08:50:15.952Z,100521.47
2022-12-18T08:52:42.289Z,100533.19
2022-12-18T08:55:10.384Z,100524.28
2022-12-18T08:57:36.728Z,100534.16
2022-12-18T09:00:03.939Z,100536.84
2022-12-18T09:02:30.445Z,100528.78
2022-12-18T09:04:57.804Z,100527.94
2022-12-18T09:07:24.254Z,100530.63
2022-12-18T09:09:50.539Z,100527.09
2022-12-18T09:12:18.114Z,100526.25
2022-12-18T09:14:44.574Z,100517.38
2022-12-18T09:17:11.056Z,100516.50
2022-12-18T09:19:37.398Z,100514.69
2022-12-18T09:22:03.696Z,100504.91
2022-12-18T09:24:29.971Z,100503.09
2022-12-18T09:26:58.047Z,100506.75
2022-12-18T09:29:25.840Z,100504.06
2022-12-18T09:31:52.155Z,100498.00
2022-12-18T09:34:18.513Z,100490.78
2022-12-18T09:36:44.935Z,100479.34
2022-12-18T09:39:11.306Z,100484.69
2022-12-18T09:41:41.791Z,100485.44
2022-12-18T09:44:13.312Z,100476.66
2022-12-18T09:46:44.754Z,100479.47
2022-12-18T09:49:13.680Z,100465.94
2022-12-18T09:51:42.587Z,100472.28
2022-12-18T09:54:13.348Z,100473.13
2022-12-18T09:56:41.212Z,100473.25
2022-12-18T09:59:15.163Z,100459.84
2022-12-18T10:01:44.563Z,100459.84
2022-12-18T10:04:12.169Z,100466.19
2022-12-18T10:06:43.604Z,100460.97
2022-12-18T10:09:16.278Z,100456.44
2022-12-18T10:11:48.692Z,100449.38
2022-12-18T10:14:18.368Z,100441.44
2022-12-18T10:16:54.080Z,100447.69
2022-12-18T10:19:29.424Z,100447.69
2022-12-18T10:22:01.747Z,100440.59
2022-12-18T10:24:32.181Z,100439.75
2022-12-18T10:27:04.048Z,100429.03
2022-12-18T10:29:30.508Z,100427.34
2022-12-18T10:35:00.816Z,100416.84
2022-12-18T10:37:28.845Z,100408.06
2022-12-18T10:40:05.036Z,100397.34
2022-12-18T10:42:31.433Z,100400.16
2022-12-18T10:45:02.470Z,100407.34
2022-12-18T10:47:28.804Z,100408.34
2022-12-18T10:49:55.221Z,100402.25
2022-12-18T10:52:30.801Z,100402.38
2022-12-18T10:54:59.317Z,100391.94
2022-12-18T10:57:34.569Z,100393.63
2022-12-18T11:00:14.193Z,100391.94
2022-12-18T11:02:40.634Z,100385.84
2022-12-18T11:05:23.896Z,100387.78
2022-12-18T11:07:51.686Z,100376.22
2022-12-18T11:10:18.924Z,100375.50
2022-12-18T11:12:45.653Z,100371.00
2022-12-18T11:15:15.729Z,100370.25
2022-12-18T11:17:42.485Z,100362.22
2022-12-18T11:20:21.721Z,100358.00
2022-12-18T11:22:56.996Z,100361.63
2022-12-18T11:25:33.032Z,100361.75
2022-12-18T11:28:01.369Z,100365.53
2022-12-18T11:30:29.405Z,100360.19
2022-12-18T11:33:00.046Z,100357.66
2022-12-18T11:35:33.076Z,100356.81
2022-12-18T11:38:05.556Z,100356.22
2022-12-18T11:40:44.479Z,100360.59
2022-12-18T11:43:13.295Z,100355.34
2022-12-18T11:45:41.709Z,100361.81
2022-12-18T11:48:13.670Z,100352.06
2022-12-18T11:50:45.632Z,100369.13
2022-12-18T11:53:13.710Z,100362.91
2022-12-18T11:55:42.699Z,100350.63
2022-12-18T11:58:12.947Z,100342.59
2022-12-18T12:00:45.877Z,100333.84
2022-12-18T12:03:19.406Z,100323.97
2022-12-18T12:05:52.249Z,100316.19
2022-12-18T12:08:27.212Z,100311.66
2022-12-18T12:13:48.948Z,100307.56
2022-12-18T12:16:18.001Z,100305.88
2022-12-18T12:18:54.249Z,100303.28
2022-12-18T12:21:25.745Z,100305.13
2022-12-18T12:23:57.557Z,100294.66
2022-12-18T12:26:28.306Z,100286.63
2022-12-18T12:29:01.800Z,100284.94
2022-12-18T12:31:35.122Z,100282.25
2022-12-18T12:34:05.761Z,100264.59
2022-12-18T12:36:39.204Z,100246.84
2022-12-18T12:39:10.714Z,100239.78
2022-12-18T12:44:17.920Z,100228.22
2022-12-18T12:46:44.641Z,100211.44
2022-12-18T12:49:13.874Z,100207.91
2022-12-18T12:51:42.478Z,100196.31
2022-12-18T12:54:15.201Z,100208.03
2022-12-18T12:56:49.011Z,100208.19
2022-12-18T12:59:20.077Z,100213.66
2022-12-18T13:01:53.311Z,100219.97
2022-12-18T13:04:23.866Z,100208.44
2022-12-18T13:06:55.231Z,100214.63
2022-12-18T13:09:23.060Z,100213.78
2022-12-18T13:11:51.615Z,100209.53
2022-12-18T13:14:24.102Z,100209.66
2022-12-18T13:16:51.865Z,100191.78
2022-12-18T13:19:22.912Z,100188.38
2022-12-18T13:21:54.455Z,100193.72
2022-12-18T13:24:24.665Z,100185.81
2022-12-18T13:26:51.145Z,100190.34
2022-12-18T13:29:41.760Z,100192.16
2022-12-18T13:32:37.011Z,100193.00
2022-12-18T13:35:35.480Z,100170.84
2022-12-18T13:38:02.333Z,100179.88
2022-12-18T13:40:38.556Z,100179.88
2022-12-18T13:43:16.631Z,100184.50
2022-12-18T13:45:47.485Z,100172.09
2022-12-18T13:48:19.040Z,100167.75
2022-12-18T13:50:58.032Z,100174.78
2022-12-18T13:53:27.162Z,100171.38
2022-12-18T13:55:53.945Z,100171.38
2022-12-18T13:58:21.526Z,100175.03
2022-12-18T14:00:49.037Z,100165.16
2022-12-18T14:03:25.761Z,100170.66
2022-12-18T14:05:54.690Z,100183.22
2022-12-18T14:08:21.434Z,100171.59
2022-12-18T14:10:50.225Z,100158.34
2022-12-18T14:13:19.664Z,100158.34
2022-12-18T14:15:49.792Z,100161.88
2022-12-18T14:18:20.773Z,100158.34
2022-12-18T14:23:29.856Z,100154.09
2022-12-18T14:25:59.606Z,100160.28
2022-12-18T14:28:28.944Z,100155.94
2022-12-18T14:30:56.627Z,100153.25
2022-12-18T14:33:24.356Z,100153.25
2022-12-18T14:35:55.534Z,100146.22
2022-12-18T14:38:23.839Z,100150.72
2022-12-18T14:40:53.428Z,100149.88
2022-12-18T14:43:19.857Z,100134.66
2022-12-18T14:45:46.409Z,100136.59
2022-12-18T14:48:22.957Z,100137.44
2022-12-18T14:50:58.879Z,100138.44
2022-12-18T14:53:32.221Z,100135.75
2022-12-18T14:55:58.655Z,100130.41
2022-12-18T14:58:25.443Z,100126.75
2022-12-18T15:00:53.547Z,100130.41
2022-12-18T15:03:22.258Z,100122.53
2022-12-18T15:05:49.579Z,100122.53
2022-12-18T15:08:28.537Z,100118.13
2022-12-18T15:10:54.850Z,100121.78
2022-12-18T15:13:22.710Z,100104.88
2022-12-18T15:15:49.236Z,100109.38
2022-12-18T15:18:17.353Z,100101.34
2022-12-18T15:20:45.790Z,100090.66
2022-12-18T15:23:15.101Z,100097.84
2022-12-18T15:25:41.539Z,100093.44
2022-12-18T15:28:17.118Z,100088.09
2022-12-18T15:30:58.675Z,100076.53
2022-12-18T15:33:26.281Z,100084.56
2022-12-18T15:35:58.225Z,100076.53
2022-12-18T15:38:24.583Z,100089.22
2022-12-18T15:40:50.928Z,100088.22
2022-12-18T15:43:23.472Z,100097.38
2022-12-18T15:45:49.823Z,100097.38
2022-12-18T15:48:20.294Z,100097.25
2022-12-18T15:50:46.910Z,100102.72
2022-12-18T15:53:14.625Z,100113.41
2022-12-18T15:55:40.883Z,100113.56
2022-12-18T15:58:09.224Z,100121.59
2022-12-18T16:00:36.273Z,100122.53
2022-12-18T16:03:02.898Z,100119.03
2022-12-18T16:05:29.445Z,100114.53
2022-12-18T16:07:55.743Z,100111.97
2022-12-18T16:10:23.831Z,100111.13
2022-12-18T16:12:50.386Z,100110.28
2022-12-18T16:15:22.437Z,100104.94
2022-12-18T16:17:50.573Z,100089.72
2022-12-18T16:20:17.703Z,100090.72
2022-12-18T16:22:44.917Z,100089.84
2022-12-18T16:25:16.622Z,100077.44
2022-12-18T16:27:44.270Z,100075.63
2022-12-18T16:30:13.585Z,100072.09
2022-12-18T16:32:39.876Z,100082.94
2022-12-18T16:35:06.498Z,100096.31
2022-12-18T16:37:32.822Z,100097.28
2022-12-18T16:39:59.207Z,100097.28
2022-12-18T16:42:25.530Z,100102.63
2022-12-18T16:44:53.212Z,100101.69
2022-12-18T16:47:19.575Z,100105.31
2022-12-18T16:49:46.376Z,100106.28
2022-12-18T16:52:12.856Z,100097.44
2022-12-18T16:54:39.249Z,100097.44
2022-12-18T16:57:05.645Z,100099.25
2022-12-18T16:59:32.006Z,100087.72
2022-12-18T17:01:59.946Z,100095.84
2022-12-18T17:04:29.162Z,100100.22
2022-12-18T17:06:55.488Z,100103.88
2022-12-18T17:09:22.435Z,100110.22
2022-12-18T17:11:48.718Z,100114.72
2022-12-18T17:14:15.654Z,100115.56
2022-12-18T17:16:42.365Z,100107.53
2022-12-18T17:19:15.331Z,100114.56
2022-12-18T17:21:43.747Z,100123.44
2022-12-18T17:24:10.093Z,100129.06
2022-12-18T17:26:36.729Z,100125.53
2022-12-18T17:29:03.141Z,100129.06
2022-12-18T17:33:57.524Z,100121.16
2022-12-18T17:36:25.403Z,100120.31
2022-12-18T17:38:52.018Z,100122.16
2022-12-18T17:41:18.334Z,100114.13
2022-12-18T17:43:44.668Z,100109.72
2022-12-18T17:46:12.151Z,100103.44
2022-12-18T17:48:38.555Z,100087.47
2022-12-18T17:53:54.340Z,100082.97
2022-12-18T17:56:21.562Z,100087.47
2022-12-18T17:58:48.588Z,100092.00
2022-12-18T18:01:19.306Z,100080.31
2022-12-18T18:03:46.395Z,100083.13
2022-12-18T18:06:15.586Z,100082.28
2022-12-18T18:08:41.893Z,100070.47
2022-12-18T18:11:12.616Z,100075.22
2022-12-18T18:13:44.930Z,100080.59
2022-12-18T18:16:13.187Z,100081.53
2022-12-18T18:18:39.519Z,100085.06
2022-12-18T18:21:06.243Z,100086.78
2022-12-18T18:23:32.867Z,100082.28
2022-12-18T18:26:02.114Z,100080.59
2022-12-18T18:28:29.823Z,100085.06
2022-12-18T18:30:56.279Z,100092.25
2022-12-18T18:33:22.638Z,100079.84
2022-12-18T18:35:56.036Z,100074.50
2022-12-18T18:38:22.509Z,100083.38
2022-12-18T18:40:48.810Z,100087.03
2022-12-18T18:43:15.094Z,100069.28
2022-12-18T18:45:42.716Z,100070.97
2022-12-18T18:48:10.710Z,100074.50
2022-12-18T18:50:37.055Z,100086.19
2022-12-18T18:53:03.338Z,100079.84
2022-12-18T18:55:29.598Z,100081.53
2022-12-18T18:57:55.926Z,100074.25
2022-12-18T19:00:22.216Z,100087.63
2022-12-18T19:02:50.472Z,100077.78
2022-12-18T19:05:16.947Z,100083.25
2022-12-18T19:07:43.288Z,100091.53
2022-12-18T19:10:09.935Z,100087.16
2022-12-18T19:12:36.251Z,100083.63
2022-12-18T19:15:05.823Z,100083.63
2022-12-18T19:17:32.282Z,100094.91
2022-12-18T19:20:00.736Z,100080.84
2022-12-18T19:22:27.098Z,100090.69
2022-12-18T19:24:53.397Z,100085.47
2022-12-18T19:27:19.766Z,100082.78
2022-12-18T19:29:46.054Z,100082.78
2022-12-18T19:32:12.405Z,100086.44
2022-12-18T19:34:39.649Z,100088.13
2022-12-18T19:37:07.291Z,100090.81
2022-12-18T19:39:33.550Z,100078.28
2022-12-18T19:42:00.002Z,100081.78
2022-12-18T19:44:26.283Z,100084.94
2022-12-18T19:46:52.575Z,100095.16
2022-12-18T19:49:18.992Z,100100.81
2022-12-18T19:51:45.643Z,100101.50
2022-12-18T19:54:17.178Z,100094.47
2022-12-18T19:56:44.075Z,100100.66
2022-12-18T19:59:10.355Z,100099.81
2022-12-18T20:01:36.831Z,100099.81
2022-12-18T20:04:06.153Z,100100.81
2022-12-18T20:06:33.852Z,100098.00
2022-12-18T20:09:01.585Z,100092.78
2022-12-18T20:11:29.752Z,100094.72
2022-12-18T20:13:56.263Z,100075.16
2022-12-18T20:16:22.707Z,100081.34
2022-12-18T20:18:49.068Z,100094.72
2022-12-18T20:21:15.787Z,100099.94
2022-12-18T20:23:42.606Z,100100.06
2022-12-18T20:26:09.719Z,100101.66
2022-12-18T20:28:37.823Z,100104.44
2022-12-18T20:31:07.120Z,100099.34
2022-12-18T20:33:34.316Z,100105.41
2022-12-18T20:36:01.168Z,100102.00
2022-12-18T20:38:28.599Z,100093.97
2022-12-18T20:40:55.414Z,100100.81
2022-12-18T20:43:21.696Z,100089.38
2022-12-18T20:45:49.427Z,100090.34
2022-12-18T20:48:15.794Z,100102.88
2022-12-18T20:50:43.170Z,100100.22
2022-12-18T20:53:09.542Z,100078.81
2022-12-18T20:55:40.528Z,100082.44
2022-12-18T20:58:06.844Z,100075.25
2022-12-18T21:00:33.138Z,100066.38
2022-12-18T21:03:00.911Z,100077.94
2022-12-18T21:05:29.043Z,100062.75
2022-12-18T21:07:55.376Z,100067.22
2022-12-18T21:10:21.803Z,100071.75
2022-12-18T21:13:03.160Z,100062.75
2022-12-18T21:15:32.361Z,100078.81
2022-12-18T21:17:58.779Z,100079.66
2022-12-18T21:20:26.368Z,100074.41
2022-12-18T21:22:52.807Z,100078.91
2022-12-18T21:25:21.882Z,100090.34
2022-12-18T21:27:48.202Z,100075.41
2022-12-18T21:30:14.593Z,100084.28
2022-12-18T21:32:40.890Z,100083.28
2022-12-18T21:35:07.436Z,100088.63
2022-12-18T21:37:35.086Z,100085.00
2022-12-18T21:40:01.388Z,100077.09
2022-12-18T21:42:27.918Z,100092.03
2022-12-18T21:44:54.389Z,100085.97
2022-12-18T21:47:22.814Z,100081.59
2022-12-18T21:49:50.251Z,100093.13
2022-12-18T21:52:16.552Z,100080.75
2022-12-18T21:54:44.183Z,100085.25
2022-12-18T21:57:10.928Z,100085.25
2022-12-18T21:59:38.193Z,100089.88
2022-12-18T22:02:07.201Z,100089.75
2022-12-18T22:04:33.612Z,100077.34
2022-12-18T22:06:59.942Z,100071.88
2022-12-18T22:09:26.380Z,100091.56
2022-12-18T22:11:54.042Z,100097.78
2022-12-18T22:14:21.190Z,100095.94
2022-12-18T22:16:47.790Z,100095.13
2022-12-18T22:19:14.987Z,100085.25
2022-12-18T22:21:42.624Z,100067.50
2022-12-18T22:24:13.218Z,100072.84
2022-12-18T22:26:40.474Z,100087.09
2022-12-18T22:29:12.885Z,100089.75
2022-12-18T22:31:39.715Z,100088.88
2022-12-18T22:34:06.288Z,100088.88
2022-12-18T22:36:36.687Z,100084.41
2022-12-18T22:39:03.527Z,100080.00
2022-12-18T22:41:29.858Z,100081.75
2022-12-18T22:43:58.136Z,100074.56
2022-12-18T22:46:26.110Z,100061.28
2022-12-18T22:48:52.592Z,100053.16
2022-12-18T22:51:19.524Z,100056.78
2022-12-18T22:53:45.912Z,100056.78
2022-12-18T22:56:21.205Z,100044.28
2022-12-18T22:58:48.147Z,100068.38
2022-12-18T23:01:18.327Z,100070.06
2022-12-18T23:03:46.142Z,100075.50
2022-12-18T23:06:12.629Z,100071.16
2022-12-18T23:08:38.940Z,100078.19
2022-12-18T23:11:05.532Z,100075.50
2022-12-18T23:13:32.624Z,100081.84
2022-12-18T23:15:59.049Z,100085.38
2022-12-18T23:18:25.515Z,100083.69
2022-12-18T23:20:53.044Z,100095.22
2022-12-18T23:23:19.486Z,100092.53
2022-12-18T23:25:45.907Z,100104.94
2022-12-18T23:28:13.328Z,100089.88
2022-12-18T23:30:39.574Z,100087.19
2022-12-18T23:33:05.870Z,100089.03
2022-12-18T23:35:32.379Z,100082.84
2022-12-18T23:38:00.476Z,100092.53
2022-12-18T23:40:27.548Z,100096.06
2022-12-18T23:42:53.872Z,100095.22
2022-12-18T23:45:20.163Z,100098.88
2022-12-18T23:47:48.249Z,100105.06
2022-12-18T23:50:17.616Z,100111.25
2022-12-18T23:52:43.902Z,100099.72
2022-12-18T23:55:11.570Z,100101.56
2022-12-18T23:57:37.985Z,100096.19
